Time;durP1;ratioP1;P1;durP2;ratioP2;P2;SDS_P1;SDS_P2;PMS_P1;PMS_P2;Temp;Humidity;BMP_temperature;BMP_pressure;BME280_temperature;BME280_humidity;BME280_pressure;Samples;Min_cycle;Max_cycle;Signal;HPM_P1;HPM_P2
2022/03/16 00:00:26;;;;;;;22.57;16.90;;;10.70;86.30;;;;;;7357575;19;20364;-74
2022/03/16 00:02:56;;;;;;;24.67;17.10;;;10.60;86.30;;;;;;7362228;19;20400;-75
2022/03/16 00:05:26;;;;;;;23.90;17.07;;;10.60;86.40;;;;;;7374366;19;20409;-75
2022/03/16 00:07:58;;;;;;;22.13;16.53;;;10.60;86.20;;;;;;7374335;19;20419;-75
2022/03/16 00:10:28;;;;;;;24.13;17.60;;;10.60;86.00;;;;;;7375979;19;21434;-75
2022/03/16 00:12:57;;;;;;;23.80;17.63;;;10.60;85.70;;;;;;7376139;19;20405;-75
2022/03/16 00:15:29;;;;;;;24.10;17.33;;;10.50;86.10;;;;;;7371119;19;20408;-75
2022/03/16 00:17:59;;;;;;;24.60;17.93;;;10.60;85.50;;;;;;7378056;19;20737;-75
2022/03/16 00:20:29;;;;;;;23.37;16.80;;;10.50;85.30;;;;;;7380379;19;20417;-75
2022/03/16 00:23:01;;;;;;;24.80;17.90;;;10.50;85.50;;;;;;7381136;19;20726;-74
2022/03/16 00:25:31;;;;;;;26.70;18.40;;;10.50;86.00;;;;;;7377401;19;20377;-74
2022/03/16 00:28:00;;;;;;;24.73;17.80;;;10.60;85.80;;;;;;7385215;19;20646;-75
2022/03/16 00:30:30;;;;;;;24.90;17.30;;;10.70;85.50;;;;;;7381409;19;20673;-75
2022/03/16 00:32:59;;;;;;;28.67;19.43;;;10.70;84.80;;;;;;7381986;19;20769;-75
2022/03/16 00:35:29;;;;;;;25.13;18.17;;;10.70;84.50;;;;;;7375725;19;20420;-74
2022/03/16 00:38:01;;;;;;;25.50;18.00;;;10.70;85.60;;;;;;7383140;19;20448;-75
2022/03/16 00:40:31;;;;;;;30.30;19.60;;;10.70;84.70;;;;;;7380739;19;20368;-74
2022/03/16 00:43:00;;;;;;;31.10;20.93;;;10.50;84.60;;;;;;7377175;19;20462;-74
2022/03/16 00:45:30;;;;;;;29.73;19.63;;;10.60;84.90;;;;;;7379151;19;20393;-75
2022/03/16 00:47:59;;;;;;;30.20;19.60;;;10.60;85.00;;;;;;7378690;19;20427;-72
2022/03/16 00:50:29;;;;;;;29.40;20.13;;;10.50;85.20;;;;;;7415741;19;20401;-75
2022/03/16 00:53:01;;;;;;;33.97;22.37;;;10.50;85.30;;;;;;7414646;19;20400;-74
2022/03/16 00:55:34;;;;;;;35.40;22.60;;;10.40;85.00;;;;;;7413482;19;20397;-75
2022/03/16 00:58:03;;;;;;;33.90;22.53;;;10.40;85.40;;;;;;7414857;19;20413;-75
2022/03/16 01:00:33;;;;;;;31.17;22.07;;;10.50;85.40;;;;;;7415913;19;20425;-75
2022/03/16 01:03:03;;;;;;;33.53;20.03;;;10.50;85.40;;;;;;7418854;19;20421;-76
2022/03/16 01:05:32;;;;;;;30.83;21.03;;;10.50;85.60;;;;;;7416679;19;20415;-74
2022/03/16 01:08:04;;;;;;;28.90;21.10;;;10.50;85.20;;;;;;7411381;19;20407;-75
2022/03/16 01:10:34;;;;;;;34.27;24.03;;;10.50;85.30;;;;;;7417689;19;20476;-76
2022/03/16 01:13:04;;;;;;;33.00;22.83;;;10.50;85.10;;;;;;7415629;19;20400;-76
2022/03/16 01:15:33;;;;;;;34.73;22.87;;;10.40;84.70;;;;;;7419037;19;20380;-76
2022/03/16 01:18:03;;;;;;;36.97;23.00;;;10.40;85.10;;;;;;7419324;19;20409;-76
2022/03/16 01:20:32;;;;;;;35.40;23.20;;;10.30;85.20;;;;;;7419030;19;20412;-75
2022/03/16 01:23:04;;;;;;;37.70;22.97;;;10.40;85.60;;;;;;7422119;19;20412;-74
2022/03/16 01:25:34;;;;;;;35.13;22.47;;;10.40;85.20;;;;;;7420105;19;20452;-75
2022/03/16 01:28:03;;;;;;;31.00;21.57;;;10.40;85.00;;;;;;7415703;19;20405;-76
2022/03/16 01:30:33;;;;;;;39.90;24.43;;;10.30;84.70;;;;;;7421658;19;20430;-75
2022/03/16 01:33:03;;;;;;;40.93;25.60;;;10.30;84.70;;;;;;7426481;19;20416;-75
2022/03/16 01:35:34;;;;;;;36.97;25.13;;;10.20;84.70;;;;;;7426898;19;20396;-75
2022/03/16 01:38:07;;;;;;;41.03;24.30;;;10.20;84.90;;;;;;7428874;19;20376;-74
2022/03/16 01:40:38;;;;;;;42.47;25.40;;;10.20;85.40;;;;;;7430136;19;20482;-74
2022/03/16 01:43:08;;;;;;;42.83;24.90;;;10.10;85.40;;;;;;7432068;19;20442;-74
2022/03/16 01:45:39;;;;;;;44.23;26.93;;;10.20;86.30;;;;;;7435562;19;20457;-74
2022/03/16 01:48:08;;;;;;;39.33;23.63;;;10.10;85.80;;;;;;7434001;19;20416;-74
2022/03/16 01:50:41;;;;;;;39.37;25.30;;;10.00;85.90;;;;;;7433753;19;20393;-74
2022/03/16 01:53:13;;;;;;;42.87;25.30;;;10.10;86.70;;;;;;7432537;19;20438;-74
2022/03/16 01:55:46;;;;;;;41.13;26.80;;;10.10;86.70;;;;;;7434294;19;20404;-75
2022/03/16 01:58:17;;;;;;;45.93;27.93;;;10.00;86.40;;;;;;7434084;19;20415;-75
2022/03/16 02:00:47;;;;;;;43.70;25.27;;;10.00;86.80;;;;;;7434126;19;20408;-74
2022/03/16 02:03:16;;;;;;;48.10;29.00;;;10.00;87.10;;;;;;7433634;19;20128;-75
2022/03/16 02:05:46;;;;;;;48.47;26.95;;;10.00;87.30;;;;;;7432649;19;20428;-74
2022/03/16 02:08:19;;;;;;;43.30;26.80;;;10.00;86.70;;;;;;7428958;19;20128;-73
2022/03/16 02:10:48;;;;;;;47.33;28.30;;;10.10;86.70;;;;;;7395120;19;21078;-75
2022/03/16 02:13:18;;;;;;;44.30;26.57;;;10.00;87.00;;;;;;7369380;19;20436;-74
2022/03/16 02:15:47;;;;;;;45.60;28.37;;;10.10;87.10;;;;;;7369536;19;20521;-74
2022/03/16 02:18:17;;;;;;;47.30;27.10;;;10.10;86.90;;;;;;7366596;19;20974;-74
2022/03/16 02:20:52;;;;;;;45.53;27.23;;;10.20;87.20;;;;;;7371979;19;20415;-75
2022/03/16 02:23:24;;;;;;;47.50;27.00;;;10.20;86.90;;;;;;7367774;19;20472;-75
2022/03/16 02:25:55;;;;;;;46.03;26.87;;;10.10;86.70;;;;;;7371454;19;21461;-75
2022/03/16 02:28:25;;;;;;;48.73;28.40;;;10.10;86.90;;;;;;7370005;19;20424;-75
2022/03/16 02:30:55;;;;;;;48.60;28.70;;;10.10;86.90;;;;;;7371037;19;20396;-75
2022/03/16 02:33:28;;;;;;;48.77;27.40;;;10.10;87.30;;;;;;7364314;19;20416;-75
2022/03/16 02:35:58;;;;;;;47.93;28.27;;;10.00;87.70;;;;;;7369129;19;20381;-75
2022/03/16 02:38:30;;;;;;;50.93;29.50;;;10.10;87.70;;;;;;7368504;19;20412;-75
2022/03/16 02:41:02;;;;;;;48.20;27.00;;;10.20;87.50;;;;;;7375686;19;20416;-75
2022/03/16 02:43:33;;;;;;;48.30;27.97;;;10.20;87.40;;;;;;7377059;19;20431;-74
2022/03/16 02:46:03;;;;;;;54.37;31.83;;;10.30;87.20;;;;;;7379850;19;21077;-73
2022/03/16 02:48:33;;;;;;;52.17;30.27;;;10.30;87.10;;;;;;7373453;19;20415;-74
2022/03/16 02:51:03;;;;;;;49.77;31.10;;;10.30;86.80;;;;;;7389660;19;20906;-74
2022/03/16 02:53:35;;;;;;;60.83;29.10;;;10.20;86.50;;;;;;7390273;19;20391;-75
2022/03/16 02:56:05;;;;;;;53.63;30.30;;;10.20;86.60;;;;;;7384468;19;20375;-74
2022/03/16 02:58:34;;;;;;;45.10;27.03;;;10.30;86.30;;;;;;7382662;19;20404;-75
2022/03/16 03:01:05;;;;;;;48.80;28.40;;;10.20;86.40;;;;;;7383146;19;20404;-75
2022/03/16 03:03:35;;;;;;;53.07;29.33;;;10.20;86.60;;;;;;7376566;19;20411;-75
2022/03/16 03:06:06;;;;;;;46.20;26.40;;;10.20;86.80;;;;;;7374516;19;20395;-75
2022/03/16 03:08:39;;;;;;;58.20;32.10;;;10.30;86.80;;;;;;7369551;19;20440;-74
2022/03/16 03:11:08;;;;;;;50.07;28.33;;;10.20;86.50;;;;;;7363821;19;20419;-75
2022/03/16 03:13:38;;;;;;;51.13;27.47;;;10.30;86.60;;;;;;7361439;19;20393;-75
2022/03/16 03:16:10;;;;;;;42.87;26.50;;;10.30;86.30;;;;;;7365215;19;21017;-75
2022/03/16 03:18:41;;;;;;;48.43;28.07;;;10.30;86.50;;;;;;7365208;19;20400;-74
2022/03/16 03:21:13;;;;;;;49.60;28.87;;;10.40;86.40;;;;;;7363365;19;20956;-75
2022/03/16 03:23:45;;;;;;;49.33;28.90;;;10.40;86.10;;;;;;7361521;19;20745;-74
2022/03/16 03:26:15;;;;;;;46.47;26.67;;;10.30;86.10;;;;;;7359226;19;20439;-75
2022/03/16 03:28:44;;;;;;;48.70;27.50;;;10.30;86.10;;;;;;7366548;19;20383;-74
2022/03/16 03:31:14;;;;;;;45.37;26.77;;;10.20;86.00;;;;;;7357709;19;20388;-74
2022/03/16 03:33:43;;;;;;;44.57;28.00;;;10.30;86.50;;;;;;7364661;19;20962;-73
2022/03/16 03:36:15;;;;;;;49.10;28.70;;;10.30;86.20;;;;;;7368438;19;20380;-74
2022/03/16 03:38:47;;;;;;;46.90;26.67;;;10.40;86.10;;;;;;7368510;19;20400;-74
2022/03/16 03:41:17;;;;;;;54.03;29.40;;;10.40;86.10;;;;;;7365887;19;20407;-74
2022/03/16 03:43:49;;;;;;;44.50;27.00;;;10.30;86.00;;;;;;7367472;19;20780;-75
2022/03/16 03:46:18;;;;;;;56.37;30.40;;;10.30;86.20;;;;;;7367549;19;21293;-76
2022/03/16 03:48:50;;;;;;;54.40;29.80;;;10.30;86.20;;;;;;7369190;19;20954;-75
2022/03/16 03:51:20;;;;;;;50.43;28.63;;;10.30;86.50;;;;;;7366095;19;20412;-76
2022/03/16 03:53:54;;;;;;;53.03;30.03;;;10.20;86.30;;;;;;7367738;19;20791;-75
2022/03/16 03:56:24;;;;;;;49.00;28.57;;;10.20;86.50;;;;;;7368941;19;20396;-74
2022/03/16 03:58:53;;;;;;;52.40;29.03;;;10.10;86.60;;;;;;7372668;19;21191;-76
2022/03/16 04:01:23;;;;;;;51.00;29.30;;;10.20;86.60;;;;;;7362687;19;20415;-75
2022/03/16 04:03:54;;;;;;;50.60;30.10;;;10.20;87.00;;;;;;7366547;19;21030;-75
2022/03/16 04:06:25;;;;;;;54.50;29.70;;;10.30;86.70;;;;;;7362543;19;20404;-76
2022/03/16 04:08:57;;;;;;;59.50;31.30;;;10.20;86.50;;;;;;7367828;19;20397;-75
2022/03/16 04:11:26;;;;;;;50.23;28.60;;;10.20;86.70;;;;;;7361527;19;21212;-75
2022/03/16 04:13:56;;;;;;;48.40;28.43;;;10.10;86.90;;;;;;7363431;19;20431;-74
2022/03/16 04:16:25;;;;;;;51.87;30.53;;;10.10;87.20;;;;;;7362668;19;20416;-74
2022/03/16 04:18:55;;;;;;;48.57;29.13;;;10.10;87.40;;;;;;7369374;19;20412;-74
2022/03/16 04:21:27;;;;;;;52.40;31.00;;;10.10;87.10;;;;;;7361882;19;20401;-74
2022/03/16 04:23:59;;;;;;;51.17;28.50;;;10.20;88.00;;;;;;7366899;19;20416;-74
2022/03/16 04:26:28;;;;;;;49.30;28.20;;;10.30;86.80;;;;;;7364676;19;20428;-74
2022/03/16 04:28:58;;;;;;;49.63;30.30;;;10.30;86.80;;;;;;7366104;19;20556;-74
2022/03/16 04:31:27;;;;;;;54.17;29.40;;;10.40;86.70;;;;;;7362866;19;20423;-74
2022/03/16 04:34:00;;;;;;;54.10;30.80;;;10.40;86.30;;;;;;7368620;19;20376;-74
2022/03/16 04:36:31;;;;;;;54.27;31.60;;;10.40;86.40;;;;;;7369863;19;20413;-74
2022/03/16 04:39:03;;;;;;;55.23;31.10;;;10.30;86.30;;;;;;7371592;19;21107;-74
2022/03/16 04:41:33;;;;;;;56.90;32.37;;;10.30;86.60;;;;;;7359942;19;20408;-74
2022/03/16 04:44:02;;;;;;;57.43;31.80;;;10.20;87.00;;;;;;7360009;19;20423;-74
2022/03/16 04:46:32;;;;;;;55.70;30.10;;;10.30;87.30;;;;;;7353821;19;20768;-74
2022/03/16 04:49:01;;;;;;;55.67;30.33;;;10.30;87.10;;;;;;7361796;19;20432;-74
2022/03/16 04:51:31;;;;;;;57.53;29.50;;;10.30;87.20;;;;;;7363413;19;20416;-74
2022/03/16 04:54:06;;;;;;;51.53;28.47;;;10.30;87.10;;;;;;7363507;19;20420;-74
2022/03/16 04:56:36;;;;;;;48.93;29.13;;;10.20;87.00;;;;;;7358637;19;20423;-75
2022/03/16 04:59:08;;;;;;;51.77;29.90;;;10.30;87.00;;;;;;7359806;19;20371;-74
2022/03/16 05:01:38;;;;;;;50.90;30.17;;;10.30;86.20;;;;;;7355484;19;20409;-75
2022/03/16 05:04:07;;;;;;;49.40;29.70;;;10.20;86.60;;;;;;7361041;19;20404;-73
2022/03/16 05:06:37;;;;;;;59.47;32.17;;;10.20;86.80;;;;;;7362840;19;20372;-74
2022/03/16 05:09:09;;;;;;;64.23;33.10;;;10.30;86.90;;;;;;7356836;19;20450;-74
2022/03/16 05:11:40;;;;;;;46.27;27.90;;;10.40;86.80;;;;;;7364995;19;20408;-73
2022/03/16 05:14:10;;;;;;;56.53;30.93;;;10.40;86.60;;;;;;7365888;19;20801;-73
2022/03/16 05:16:40;;;;;;;57.30;30.27;;;10.40;86.00;;;;;;7363094;19;20462;-73
2022/03/16 05:19:09;;;;;;;52.37;29.93;;;10.50;85.90;;;;;;7358989;19;21123;-73
2022/03/16 05:21:39;;;;;;;49.07;28.40;;;10.50;85.80;;;;;;7365091;19;21110;-72
2022/03/16 05:24:13;;;;;;;51.90;29.80;;;10.50;86.00;;;;;;7357287;19;20421;-72
2022/03/16 05:26:42;;;;;;;54.67;31.53;;;10.40;85.90;;;;;;7364125;19;20419;-73
2022/03/16 05:29:15;;;;;;;52.13;29.33;;;10.40;86.10;;;;;;7357808;19;20421;-74
2022/03/16 05:31:45;;;;;;;50.97;29.00;;;10.40;86.50;;;;;;7353091;19;20425;-73
2022/03/16 05:34:15;;;;;;;54.50;29.90;;;10.40;86.20;;;;;;7361750;19;20425;-73
2022/03/16 05:36:47;;;;;;;52.90;31.43;;;10.40;86.60;;;;;;7367316;19;20834;-73
2022/03/16 05:39:19;;;;;;;56.57;30.87;;;10.40;86.50;;;;;;7358800;19;21621;-73
2022/03/16 05:41:48;;;;;;;54.37;30.33;;;10.50;86.30;;;;;;7362814;19;20421;-73
2022/03/16 05:44:18;;;;;;;55.83;31.87;;;10.50;86.10;;;;;;7360678;19;20926;-73
2022/03/16 05:46:48;;;;;;;56.10;33.27;;;10.40;86.20;;;;;;7356011;19;20413;-73
2022/03/16 05:49:18;;;;;;;53.40;33.70;;;10.30;86.80;;;;;;7359031;19;20372;-73
2022/03/16 05:51:49;;;;;;;56.90;31.67;;;10.20;87.10;;;;;;7364275;19;21011;-73
2022/03/16 05:54:22;;;;;;;53.87;31.33;;;10.20;87.30;;;;;;7359934;19;20417;-73
2022/03/16 05:56:54;;;;;;;58.60;31.67;;;10.20;87.50;;;;;;7366166;19;20403;-73
2022/03/16 05:59:23;;;;;;;53.77;29.60;;;10.20;87.50;;;;;;7370826;19;21435;-73
2022/03/16 06:01:55;;;;;;;59.17;31.77;;;10.20;87.70;;;;;;7363406;19;21444;-73
2022/03/16 06:04:27;;;;;;;59.20;33.60;;;10.00;88.00;;;;;;7373388;19;20425;-73
2022/03/16 06:06:56;;;;;;;59.87;33.10;;;10.20;88.20;;;;;;7376251;19;21357;-73
2022/03/16 06:09:28;;;;;;;50.17;28.83;;;10.10;88.10;;;;;;7372949;19;21320;-73
2022/03/16 06:11:58;;;;;;;57.67;32.43;;;10.10;88.00;;;;;;7376478;19;20385;-73
2022/03/16 06:14:30;;;;;;;58.33;32.40;;;10.10;88.20;;;;;;7371466;19;20396;-74
2022/03/16 06:17:00;;;;;;;55.13;31.93;;;10.10;88.30;;;;;;7374454;19;20942;-74
2022/03/16 06:19:29;;;;;;;56.27;30.50;;;10.20;88.40;;;;;;7379276;19;21299;-74
2022/03/16 06:22:00;;;;;;;68.17;34.97;;;10.20;88.10;;;;;;7382640;19;20355;-73
2022/03/16 06:24:32;;;;;;;65.63;35.10;;;10.30;88.40;;;;;;7379728;19;20412;-73
2022/03/16 06:27:01;;;;;;;55.87;32.50;;;10.40;88.00;;;;;;7384580;19;20412;-73
2022/03/16 06:29:31;;;;;;;55.30;31.03;;;10.40;87.50;;;;;;7376732;19;20434;-74
2022/03/16 06:32:00;;;;;;;54.90;29.57;;;10.40;87.40;;;;;;7381937;19;20447;-74
2022/03/16 06:34:30;;;;;;;52.30;32.00;;;10.30;88.60;;;;;;7379552;19;20745;-74
2022/03/16 06:36:59;;;;;;;82.70;42.87;;;10.40;87.70;;;;;;7383564;19;20500;-75
2022/03/16 06:39:31;;;;;;;74.83;41.80;;;10.40;87.60;;;;;;7368581;19;20404;-75
2022/03/16 06:42:01;;;;;;;56.13;30.70;;;10.50;87.60;;;;;;7376879;19;20420;-74
2022/03/16 06:44:30;;;;;;;52.43;29.67;;;10.50;87.00;;;;;;7376957;19;20404;-75
2022/03/16 06:47:00;;;;;;;65.40;32.00;;;10.50;86.90;;;;;;7380730;19;20781;-74
2022/03/16 06:49:31;;;;;;;58.53;31.37;;;10.50;86.90;;;;;;7381250;19;20400;-75
2022/03/16 06:52:01;;;;;;;55.10;31.10;;;10.50;86.80;;;;;;7382365;19;20420;-75
2022/03/16 06:54:35;;;;;;;60.40;31.00;;;10.50;87.20;;;;;;7380555;19;20939;-75
2022/03/16 06:57:05;;;;;;;61.83;30.57;;;10.60;87.10;;;;;;7388183;19;20961;-74
2022/03/16 06:59:35;;;;;;;57.73;31.30;;;10.70;86.80;;;;;;7376588;19;20412;-74
2022/03/16 07:02:04;;;;;;;50.70;29.23;;;10.70;86.30;;;;;;7380104;19;20547;-75
2022/03/16 07:04:34;;;;;;;57.33;30.53;;;10.70;86.20;;;;;;7384910;19;22018;-76
2022/03/16 07:07:03;;;;;;;57.40;31.13;;;10.70;86.30;;;;;;7392015;19;20402;-75
2022/03/16 07:09:35;;;;;;;55.30;32.67;;;10.50;87.10;;;;;;7392872;19;20408;-75
2022/03/16 07:12:05;;;;;;;62.23;32.57;;;10.50;87.70;;;;;;7398269;19;20429;-75
2022/03/16 07:14:35;;;;;;;64.03;35.10;;;10.60;87.50;;;;;;7401602;19;21045;-74
2022/03/16 07:17:07;;;;;;;51.43;30.10;;;10.70;86.80;;;;;;7401958;19;20408;-74
2022/03/16 07:19:37;;;;;;;58.80;32.17;;;10.80;86.70;;;;;;7393634;19;20372;-74
2022/03/16 07:22:06;;;;;;;68.47;31.63;;;10.90;86.50;;;;;;7387392;19;20471;-73
2022/03/16 07:24:40;;;;;;;54.90;30.70;;;10.90;85.90;;;;;;7381603;19;21129;-75
2022/03/16 07:27:13;;;;;;;59.67;30.73;;;10.80;86.30;;;;;;7386405;19;20419;-81
2022/03/16 07:29:43;;;;;;;57.80;31.50;;;10.70;86.70;;;;;;7380986;19;21155;-81
2022/03/16 07:32:13;;;;;;;60.03;29.60;;;10.70;87.00;;;;;;7380370;19;21039;-80
2022/03/16 07:34:43;;;;;;;53.53;29.67;;;10.70;86.60;;;;;;7381619;19;20408;-80
2022/03/16 07:37:13;;;;;;;50.73;28.33;;;10.80;86.70;;;;;;7379406;19;20472;-81
2022/03/16 07:39:46;;;;;;;63.63;32.20;;;10.80;86.60;;;;;;7380700;19;20360;-78
2022/03/16 07:42:16;;;;;;;49.70;28.77;;;10.80;86.50;;;;;;7380570;19;20403;-78
2022/03/16 07:44:49;;;;;;;50.43;27.80;;;10.70;85.70;;;;;;7376835;19;20433;-79
2022/03/16 07:47:20;;;;;;;52.40;28.27;;;10.70;86.10;;;;;;7374285;19;20493;-79
2022/03/16 07:49:50;;;;;;;45.03;27.20;;;10.70;85.50;;;;;;7379121;19;20403;-77
2022/03/16 07:52:20;;;;;;;46.40;25.70;;;10.80;85.10;;;;;;7374542;19;20412;-77
2022/03/16 07:54:52;;;;;;;47.40;24.23;;;10.80;85.00;;;;;;7374542;19;20378;-76
2022/03/16 07:57:21;;;;;;;41.43;23.00;;;10.80;84.10;;;;;;7373215;19;20419;-75
2022/03/16 07:59:51;;;;;;;36.87;22.37;;;10.80;83.80;;;;;;7374924;19;20966;-75
2022/03/16 08:02:20;;;;;;;39.93;22.90;;;10.90;83.10;;;;;;7368038;19;20416;-76
2022/03/16 08:04:50;;;;;;;40.57;23.97;;;10.90;82.20;;;;;;7370780;19;20829;-75
2022/03/16 08:07:20;;;;;;;39.90;24.27;;;10.90;81.80;;;;;;7379659;19;21898;-75
2022/03/16 08:09:52;;;;;;;36.90;23.30;;;10.90;80.90;;;;;;7375761;19;20412;-75
2022/03/16 08:12:21;;;;;;;39.73;22.67;;;10.80;80.30;;;;;;7368859;19;20405;-76
2022/03/16 08:14:51;;;;;;;34.67;21.47;;;10.80;81.20;;;;;;7371347;19;20383;-76
2022/03/16 08:17:20;;;;;;;35.70;22.10;;;10.80;80.40;;;;;;7373489;19;20440;-74
2022/03/16 08:19:53;;;;;;;37.00;22.67;;;10.80;80.90;;;;;;7373756;19;20388;-75
2022/03/16 08:22:29;;;;;;;40.57;22.70;;;10.90;80.20;;;;;;7378940;19;20902;-75
2022/03/16 08:25:02;;;;;;;39.43;22.80;;;11.00;79.90;;;;;;7371763;19;20411;-75
2022/03/16 08:27:32;;;;;;;39.53;20.87;;;11.00;79.20;;;;;;7377886;19;21014;-78
2022/03/16 08:30:02;;;;;;;36.53;21.43;;;11.10;79.20;;;;;;7371930;19;20433;-78
2022/03/16 08:32:32;;;;;;;37.57;20.77;;;11.00;78.90;;;;;;7367723;19;20408;-78
2022/03/16 08:35:01;;;;;;;36.07;21.30;;;10.90;79.80;;;;;;7369160;19;20407;-78
2022/03/16 08:37:31;;;;;;;35.93;22.27;;;11.10;79.70;;;;;;7374161;19;20961;-78
2022/03/16 08:40:07;;;;;;;37.37;23.57;;;11.10;79.10;;;;;;7372804;19;20392;-77
2022/03/16 08:42:37;;;;;;;37.73;22.63;;;11.20;78.30;;;;;;7380154;19;21345;-77
2022/03/16 08:45:07;;;;;;;37.27;23.87;;;11.20;78.50;;;;;;7378988;19;20447;-77
2022/03/16 08:47:37;;;;;;;32.87;20.10;;;11.20;78.30;;;;;;7365087;19;20787;-76
2022/03/16 08:50:08;;;;;;;35.43;21.57;;;11.20;78.90;;;;;;7364710;19;20395;-76
2022/03/16 08:52:37;;;;;;;40.83;22.90;;;11.30;79.10;;;;;;7365680;19;20423;-71
2022/03/16 08:55:14;;;;;;;33.87;21.80;;;11.30;78.70;;;;;;7358791;19;20484;-76
2022/03/16 08:57:44;;;;;;;36.77;22.57;;;11.30;78.90;;;;;;7368781;19;20407;-76
2022/03/16 09:00:18;;;;;;;37.90;22.73;;;11.40;78.50;;;;;;7365264;19;20416;-76
2022/03/16 09:02:48;;;;;;;36.73;21.00;;;11.50;78.30;;;;;;7365476;19;20372;-75
2022/03/16 09:05:18;;;;;;;33.63;21.73;;;11.60;77.50;;;;;;7364105;19;20409;-77
2022/03/16 09:07:47;;;;;;;34.17;21.07;;;11.60;77.80;;;;;;7376049;19;20372;-76
2022/03/16 09:10:22;;;;;;;33.97;20.80;;;11.70;77.80;;;;;;7369208;19;20424;-81
2022/03/16 09:12:51;;;;;;;31.87;21.13;;;11.70;77.60;;;;;;7369119;19;20371;-76
2022/03/16 09:15:21;;;;;;;32.40;21.73;;;11.80;76.90;;;;;;7369413;19;20844;-75
2022/03/16 09:17:50;;;;;;;34.73;21.60;;;11.80;76.60;;;;;;7373258;19;20419;-73
2022/03/16 09:20:20;;;;;;;34.90;22.23;;;11.70;76.70;;;;;;7376732;19;20767;-74
2022/03/16 09:22:50;;;;;;;32.47;21.30;;;11.50;77.40;;;;;;7378299;19;20375;-74
2022/03/16 09:25:25;;;;;;;38.40;21.33;;;11.40;78.20;;;;;;7374959;19;20409;-74
2022/03/16 09:27:55;;;;;;;36.40;21.30;;;11.50;78.50;;;;;;7388807;19;20496;-75
2022/03/16 09:30:25;;;;;;;32.13;21.87;;;11.70;78.50;;;;;;7413712;19;20397;-75
2022/03/16 09:32:57;;;;;;;36.87;22.10;;;11.80;78.00;;;;;;7417407;19;20396;-75
2022/03/16 09:35:28;;;;;;;36.53;23.37;;;11.90;77.30;;;;;;7415984;19;20425;-74
2022/03/16 09:37:58;;;;;;;35.23;21.87;;;11.90;76.80;;;;;;7417130;19;20453;-74
2022/03/16 09:40:30;;;;;;;33.10;21.17;;;11.90;76.50;;;;;;7418028;19;20405;-74
2022/03/16 09:43:04;;;;;;;37.27;22.90;;;12.00;76.90;;;;;;7417853;19;20415;-74
2022/03/16 09:45:39;;;;;;;34.80;21.70;;;12.00;76.20;;;;;;7417979;19;20866;-74
2022/03/16 09:48:11;;;;;;;41.73;22.57;;;11.90;76.60;;;;;;7417903;19;20430;-73
2022/03/16 09:50:43;;;;;;;33.47;21.33;;;12.00;76.60;;;;;;7414170;19;20931;-74
2022/03/16 09:53:13;;;;;;;35.57;20.60;;;12.10;75.90;;;;;;7417744;19;20401;-73
2022/03/16 09:55:45;;;;;;;32.60;21.17;;;12.10;75.70;;;;;;7424070;19;20779;-73
2022/03/16 09:58:15;;;;;;;35.90;21.47;;;12.20;75.80;;;;;;7425380;19;20427;-75
2022/03/16 10:00:44;;;;;;;30.63;19.27;;;12.20;74.60;;;;;;7425783;19;20372;-73
2022/03/16 10:03:15;;;;;;;34.13;21.40;;;12.20;75.40;;;;;;7428795;19;20397;-75
2022/03/16 10:05:44;;;;;;;37.37;21.77;;;12.20;74.80;;;;;;7420981;19;20424;-75
2022/03/16 10:08:14;;;;;;;32.13;20.87;;;12.40;75.20;;;;;;7425095;19;20390;-75
2022/03/16 10:13:29;;;;;;;28.63;19.23;;;12.90;73.60;;;;;;7433195;19;20424;-75
2022/03/16 10:16:13;;;;;;;29.60;19.53;;;13.00;72.40;;;;;;7433758;19;20430;-76
2022/03/16 10:18:46;;;;;;;24.70;17.17;;;13.30;70.90;;;;;;7435634;19;20400;-75
2022/03/16 10:21:16;;;;;;;25.77;18.17;;;13.30;68.80;;;;;;7429873;19;20460;-75
2022/03/16 10:23:47;;;;;;;27.87;18.17;;;13.40;70.00;;;;;;7421704;19;20379;-75
2022/03/16 10:26:22;;;;;;;24.83;15.83;;;13.60;68.30;;;;;;7396793;19;20412;-75
2022/03/16 10:28:52;;;;;;;25.37;18.23;;;14.00;66.80;;;;;;7393860;19;20376;-75
2022/03/16 10:31:22;;;;;;;23.27;16.97;;;14.30;64.10;;;;;;7391201;19;21356;-75
2022/03/16 10:33:53;;;;;;;23.40;16.13;;;14.70;62.60;;;;;;7390894;19;20375;-75
2022/03/16 10:36:25;;;;;;;23.43;16.50;;;14.80;60.10;;;;;;7388845;19;20404;-75
2022/03/16 10:39:03;;;;;;;21.70;15.10;;;15.40;59.00;;;;;;7387769;19;20412;-75
2022/03/16 10:47:02;;;;;;;25.70;15.53;;;16.30;56.00;;;;;;7384904;19;20420;-75
2022/03/16 10:49:34;;;;;;;20.40;15.97;;;16.30;55.50;;;;;;7385495;19;21504;-75
2022/03/16 10:52:07;;;;;;;20.80;15.30;;;16.70;53.90;;;;;;7387889;19;20740;-75
2022/03/16 10:54:38;;;;;;;20.90;15.60;;;17.00;53.50;;;;;;7385136;19;20401;-75
2022/03/16 10:57:15;;;;;;;19.63;15.23;;;17.30;52.90;;;;;;7385140;19;20417;-75
2022/03/16 10:59:48;;;;;;;20.07;15.90;;;17.80;51.80;;;;;;7383636;19;20914;-75
2022/03/16 11:02:20;;;;;;;21.13;16.30;;;18.40;51.10;;;;;;7382110;19;20920;-75
2022/03/16 11:04:53;;;;;;;20.60;16.00;;;18.90;48.80;;;;;;7379940;19;20423;-75
2022/03/16 11:07:23;;;;;;;19.77;16.33;;;19.20;47.80;;;;;;7380000;19;20377;-75
2022/03/16 11:09:54;;;;;;;20.80;16.23;;;18.70;48.10;;;;;;7380884;19;20417;-75
2022/03/16 11:15:09;;;;;;;20.70;16.93;;;19.60;47.00;;;;;;7377456;19;20503;-75
2022/03/16 11:17:41;;;;;;;21.47;16.33;;;20.30;45.90;;;;;;7381239;19;20444;-74
2022/03/16 11:20:12;;;;;;;20.73;16.07;;;20.70;44.30;;;;;;7380247;19;20380;-75
2022/03/16 11:25:34;;;;;;;26.80;16.37;;;;;;;;;;7380493;19;20380;-75
2022/03/16 11:28:10;;;;;;;18.07;14.73;;;;;;;;;;7381195;19;20905;-75
2022/03/16 11:30:41;;;;;;;18.83;14.27;;;;;;;;;;7378187;19;20459;-76
2022/03/16 11:33:16;;;;;;;19.87;15.83;;;;;;;;;;7381094;19;20411;-75
2022/03/16 11:35:52;;;;;;;17.97;14.90;;;;;;;;;;7379947;19;20426;-75
2022/03/16 11:38:24;;;;;;;22.00;15.83;;;;;;;;;;7379689;19;20379;-75
2022/03/16 11:40:58;;;;;;;19.60;16.17;;;;;;;;;;7381594;19;20909;-75
2022/03/16 11:43:32;;;;;;;18.30;14.00;;;;;;;;;;7383002;19;21063;-75
2022/03/16 11:46:02;;;;;;;16.90;14.93;;;;;;;;;;7383873;19;20404;-75
2022/03/16 11:48:56;;;;;;;18.17;15.37;;;;;;;;;;7382731;19;21131;-75
2022/03/16 11:51:27;;;;;;;18.23;15.63;;;;;;;;;;7380539;19;21069;-75
2022/03/16 11:54:09;;;;;;;18.40;15.43;;;;;;;;;;7381482;19;20408;-75
2022/03/16 11:56:46;;;;;;;21.83;16.00;;;;;;;;;;7382128;19;20904;-75
2022/03/16 11:59:31;;;;;;;20.23;14.87;;;;;;;;;;7378891;19;21030;-75
2022/03/16 12:02:20;;;;;;;18.80;14.43;;;;;;;;;;7378122;19;20430;-75
2022/03/16 12:04:50;;;;;;;20.63;16.10;;;;;;;;;;7380844;19;20520;-75
2022/03/16 12:07:21;;;;;;;23.30;16.53;;;;;;;;;;7385981;19;20412;-74
2022/03/16 12:09:52;;;;;;;18.20;15.77;;;;;;;;;;7383726;19;20372;-75
2022/03/16 12:15:20;;;;;;;19.20;15.93;;;;;;;;;;7380612;19;20380;-72
2022/03/16 12:18:11;;;;;;;21.20;15.67;;;;;;;;;;7381680;19;20428;-73
2022/03/16 12:20:44;;;;;;;22.07;15.17;;;;;;;;;;7382524;19;21260;-72
2022/03/16 12:23:19;;;;;;;18.57;13.90;;;;;;;;;;7382457;19;20410;-72
2022/03/16 12:25:50;;;;;;;19.57;16.80;;;;;;;;;;7382827;19;20419;-72
2022/03/16 12:31:06;;;;;;;20.90;15.13;;;;;;;;;;7392390;19;20384;-76
2022/03/16 12:33:37;;;;;;;22.90;15.60;;;;;;;;;;7399796;19;20404;-75
2022/03/16 12:36:11;;;;;;;20.10;16.20;;;;;;;;;;7401673;19;20428;-76
2022/03/16 12:38:42;;;;;;;20.47;13.87;;;;;;;;;;7395053;19;20461;-78
2022/03/16 12:43:56;;;;;;;19.90;16.47;;;;;;;;;;7378876;19;21254;-75
2022/03/16 12:46:29;;;;;;;21.70;16.20;;;;;;;;;;7374654;19;20427;-76
2022/03/16 12:49:00;;;;;;;18.03;13.20;;;;;;;;;;7381194;19;20404;-76
2022/03/16 12:51:40;;;;;;;18.37;14.30;;;;;;;;;;7380207;19;20372;-76
2022/03/16 12:54:12;;;;;;;21.13;14.37;;;;;;;;;;7377951;19;20420;-77
2022/03/16 12:56:42;;;;;;;18.73;13.97;;;;;;;;;;7374354;19;20921;-76
2022/03/16 12:59:12;;;;;;;18.57;14.30;;;;;;;;;;7378802;19;20911;-76
2022/03/16 13:01:42;;;;;;;19.07;15.20;;;;;;;;;;7375800;19;20415;-73
2022/03/16 13:04:11;;;;;;;19.00;14.63;;;;;;;;;;7377191;19;20380;-72
2022/03/16 13:06:44;;;;;;;17.63;13.20;;;;;;;;;;7377921;19;21270;-72
2022/03/16 13:09:14;;;;;;;18.80;14.43;;;;;;;;;;7374993;19;20408;-72
2022/03/16 13:11:45;;;;;;;19.97;14.13;;;;;;;;;;7365219;19;20375;-72
2022/03/16 13:14:19;;;;;;;20.90;14.70;;;;;;;;;;7375163;19;20404;-72
2022/03/16 13:16:55;;;;;;;21.37;14.40;;;;;;;;;;7376689;19;20412;-71
2022/03/16 13:19:26;;;;;;;19.97;14.00;;;;;;;;;;7351488;19;20451;-71
2022/03/16 13:22:02;;;;;;;21.10;14.40;;;;;;;;;;7372800;19;20368;-71